< < Back
Terminal Aerodrome Forecast


Current Version              Previous Versions:   1  2  3  4  5  6  7  8  9  

Terminal Aerodrome Forecast

957
FTUS42 KFFC 240520
TAFFTY
TAF
KFTY 240520Z 2406/2506 00000KT P6SM SCT050
     FM240800 00000KT P6SM SCT010 BKN050
      TEMPO 2410/2413 BKN008
     FM241500 13005KT P6SM VCSH SCT030 BKN060
     FM242000 13005KT P6SM SCT050 SCT100
     FM250100 11003KT P6SM SCT060 SCT150=

Latest METAR

218
SAUS70 KWBC 240800 RRA
MTRFTY
METAR KFTY 240753Z 00000KT 10SM FEW055 FEW070 23/21 A3022 RMK AO2 SLP222
T02280211


USA.gov is the U.S. government's official web portal to all federal, state and local government web resources and services.